sensor_id;sensor_type;location;lat;lon;timestamp;noise_LAeq;noise_LA_min;noise_LA_max;noise_LA01;noise_LA95
58251;Laerm;51449;51.676;5.812;2023-04-28T00:01:58;52.32;29.48;71.93;;
58251;Laerm;51449;51.676;5.812;2023-04-28T00:04:20;31.11;28.48;36.04;;
58251;Laerm;51449;51.676;5.812;2023-04-28T00:06:43;52.01;29.50;68.36;;
58251;Laerm;51449;51.676;5.812;2023-04-28T00:09:05;55.09;31.16;71.59;;
58251;Laerm;51449;51.676;5.812;2023-04-28T00:11:26;49.71;33.35;68.43;;
58251;Laerm;51449;51.676;5.812;2023-04-28T00:13:48;41.28;35.21;53.97;;
58251;Laerm;51449;51.676;5.812;2023-04-28T00:16:10;52.26;34.91;66.05;;
58251;Laerm;51449;51.676;5.812;2023-04-28T00:18:32;52.01;32.49;69.81;;
58251;Laerm;51449;51.676;5.812;2023-04-28T00:20:55;35.07;30.92;47.14;;
58251;Laerm;51449;51.676;5.812;2023-04-28T00:23:17;45.79;30.08;62.26;;
58251;Laerm;51449;51.676;5.812;2023-04-28T00:25:39;47.67;29.45;62.96;;
58251;Laerm;51449;51.676;5.812;2023-04-28T00:28:00;48.92;28.77;68.14;;
58251;Laerm;51449;51.676;5.812;2023-04-28T00:30:22;52.52;28.73;69.14;;
58251;Laerm;51449;51.676;5.812;2023-04-28T00:32:45;35.37;28.50;61.46;;
58251;Laerm;51449;51.676;5.812;2023-04-28T00:35:08;51.04;37.61;66.81;;
58251;Laerm;51449;51.676;5.812;2023-04-28T00:37:29;42.79;36.75;59.59;;
58251;Laerm;51449;51.676;5.812;2023-04-28T00:39:55;54.09;31.01;70.76;;
58251;Laerm;51449;51.676;5.812;2023-04-28T00:42:18;51.23;30.64;68.67;;
58251;Laerm;51449;51.676;5.812;2023-04-28T00:44:40;31.35;28.83;40.61;;
58251;Laerm;51449;51.676;5.812;2023-04-28T00:47:03;53.71;28.44;69.24;;
58251;Laerm;51449;51.676;5.812;2023-04-28T00:49:25;38.93;30.56;55.77;;
58251;Laerm;51449;51.676;5.812;2023-04-28T00:51:47;32.30;28.84;39.21;;
58251;Laerm;51449;51.676;5.812;2023-04-28T00:54:12;32.08;28.38;47.13;;
58251;Laerm;51449;51.676;5.812;2023-04-28T00:56:35;46.43;30.31;63.39;;
58251;Laerm;51449;51.676;5.812;2023-04-28T00:58:57;57.69;36.89;73.64;;
58251;Laerm;51449;51.676;5.812;2023-04-28T01:01:19;53.15;34.88;68.10;;
58251;Laerm;51449;51.676;5.812;2023-04-28T01:03:41;50.99;31.30;69.50;;
58251;Laerm;51449;51.676;5.812;2023-04-28T01:06:05;33.47;30.04;42.95;;
58251;Laerm;51449;51.676;5.812;2023-04-28T01:08:30;39.60;31.89;50.95;;
58251;Laerm;51449;51.676;5.812;2023-04-28T01:10:55;38.10;34.72;44.85;;
58251;Laerm;51449;51.676;5.812;2023-04-28T01:13:36;58.75;34.42;75.57;;
58251;Laerm;51449;51.676;5.812;2023-04-28T01:15:59;35.52;32.54;42.34;;
58251;Laerm;51449;51.676;5.812;2023-04-28T01:18:22;50.95;31.61;67.30;;
58251;Laerm;51449;51.676;5.812;2023-04-28T01:20:44;59.37;30.95;76.57;;
58251;Laerm;51449;51.676;5.812;2023-04-28T01:23:14;34.82;29.67;47.34;;
58251;Laerm;51449;51.676;5.812;2023-04-28T01:25:37;49.29;29.23;64.94;;
58251;Laerm;51449;51.676;5.812;2023-04-28T01:27:59;39.66;29.11;55.45;;
58251;Laerm;51449;51.676;5.812;2023-04-28T01:30:21;53.47;28.86;68.99;;
58251;Laerm;51449;51.676;5.812;2023-04-28T01:32:43;50.69;29.30;68.09;;
58251;Laerm;51449;51.676;5.812;2023-04-28T01:35:05;51.41;28.89;66.94;;
58251;Laerm;51449;51.676;5.812;2023-04-28T01:37:29;47.44;29.93;63.78;;
58251;Laerm;51449;51.676;5.812;2023-04-28T01:39:51;58.71;30.72;74.28;;
58251;Laerm;51449;51.676;5.812;2023-04-28T01:42:12;46.05;29.64;62.83;;
58251;Laerm;51449;51.676;5.812;2023-04-28T01:44:34;55.27;30.23;72.92;;
58251;Laerm;51449;51.676;5.812;2023-04-28T01:46:56;58.15;29.43;73.84;;
58251;Laerm;51449;51.676;5.812;2023-04-28T01:49:18;51.99;32.41;69.11;;
58251;Laerm;51449;51.676;5.812;2023-04-28T01:51:40;51.52;33.81;68.45;;
58251;Laerm;51449;51.676;5.812;2023-04-28T01:54:03;46.42;34.06;65.35;;
58251;Laerm;51449;51.676;5.812;2023-04-28T01:56:25;58.75;34.46;72.25;;
58251;Laerm;51449;51.676;5.812;2023-04-28T01:58:49;47.16;31.65;64.86;;
58251;Laerm;51449;51.676;5.812;2023-04-28T02:01:11;60.33;32.62;73.24;;
58251;Laerm;51449;51.676;5.812;2023-04-28T02:03:34;39.58;30.39;62.29;;
58251;Laerm;51449;51.676;5.812;2023-04-28T02:05:57;57.06;30.63;70.27;;
58251;Laerm;51449;51.676;5.812;2023-04-28T02:08:19;55.76;31.52;71.29;;
58251;Laerm;51449;51.676;5.812;2023-04-28T02:10:41;34.73;28.09;49.53;;
58251;Laerm;51449;51.676;5.812;2023-04-28T02:13:03;46.16;29.04;64.47;;
58251;Laerm;51449;51.676;5.812;2023-04-28T02:15:26;53.36;30.49;69.42;;
58251;Laerm;51449;51.676;5.812;2023-04-28T02:17:47;51.58;30.27;65.82;;
58251;Laerm;51449;51.676;5.812;2023-04-28T02:20:10;54.66;29.29;69.44;;
58251;Laerm;51449;51.676;5.812;2023-04-28T02:22:32;50.73;28.75;64.98;;
58251;Laerm;51449;51.676;5.812;2023-04-28T02:24:54;56.58;29.72;71.62;;
58251;Laerm;51449;51.676;5.812;2023-04-28T02:27:17;55.45;32.12;73.04;;
58251;Laerm;51449;51.676;5.812;2023-04-28T02:29:38;57.28;32.32;70.43;;
58251;Laerm;51449;51.676;5.812;2023-04-28T02:32:00;58.75;33.70;71.13;;
58251;Laerm;51449;51.676;5.812;2023-04-28T02:34:22;52.25;31.75;67.57;;
58251;Laerm;51449;51.676;5.812;2023-04-28T02:36:44;53.46;31.20;69.58;;
58251;Laerm;51449;51.676;5.812;2023-04-28T02:39:06;57.40;31.29;70.97;;
58251;Laerm;51449;51.676;5.812;2023-04-28T02:41:27;49.11;33.36;65.66;;
58251;Laerm;51449;51.676;5.812;2023-04-28T02:43:51;58.02;31.92;72.13;;
58251;Laerm;51449;51.676;5.812;2023-04-28T02:46:13;59.00;32.00;72.86;;
58251;Laerm;51449;51.676;5.812;2023-04-28T02:48:35;59.55;32.28;75.06;;
58251;Laerm;51449;51.676;5.812;2023-04-28T02:50:57;55.16;30.15;71.17;;
58251;Laerm;51449;51.676;5.812;2023-04-28T02:53:20;48.90;29.84;65.73;;
58251;Laerm;51449;51.676;5.812;2023-04-28T02:55:43;57.01;28.69;73.33;;
58251;Laerm;51449;51.676;5.812;2023-04-28T02:58:05;54.94;32.74;70.25;;
58251;Laerm;51449;51.676;5.812;2023-04-28T03:00:26;56.15;30.83;72.46;;
58251;Laerm;51449;51.676;5.812;2023-04-28T03:02:48;46.48;28.87;64.58;;
58251;Laerm;51449;51.676;5.812;2023-04-28T03:05:10;54.59;29.77;70.68;;
58251;Laerm;51449;51.676;5.812;2023-04-28T03:07:32;58.96;35.79;71.52;;
58251;Laerm;51449;51.676;5.812;2023-04-28T03:09:54;58.90;35.53;72.71;;
58251;Laerm;51449;51.676;5.812;2023-04-28T03:12:15;57.87;33.91;71.80;;
58251;Laerm;51449;51.676;5.812;2023-04-28T03:14:39;59.36;33.87;73.24;;
58251;Laerm;51449;51.676;5.812;2023-04-28T03:17:01;58.35;34.42;74.40;;
58251;Laerm;51449;51.676;5.812;2023-04-28T03:19:24;60.69;36.55;75.23;;
58251;Laerm;51449;51.676;5.812;2023-04-28T03:21:47;63.62;38.51;78.86;;
58251;Laerm;51449;51.676;5.812;2023-04-28T03:24:08;63.59;36.71;82.03;;
58251;Laerm;51449;51.676;5.812;2023-04-28T03:26:30;65.45;34.59;78.00;;
58251;Laerm;51449;51.676;5.812;2023-04-28T03:28:52;66.31;39.81;79.12;;
58251;Laerm;51449;51.676;5.812;2023-04-28T03:31:14;65.54;40.75;80.52;;
58251;Laerm;51449;51.676;5.812;2023-04-28T03:33:37;66.61;42.14;79.55;;
58251;Laerm;51449;51.676;5.812;2023-04-28T03:35:58;70.22;44.50;98.72;;
58251;Laerm;51449;51.676;5.812;2023-04-28T03:38:20;64.69;41.78;79.89;;
58251;Laerm;51449;51.676;5.812;2023-04-28T03:40:42;62.06;43.19;73.02;;
58251;Laerm;51449;51.676;5.812;2023-04-28T03:43:04;64.93;43.59;80.25;;
58251;Laerm;51449;51.676;5.812;2023-04-28T03:45:30;63.63;44.18;76.02;;
58251;Laerm;51449;51.676;5.812;2023-04-28T03:47:52;62.43;42.87;75.29;;
58251;Laerm;51449;51.676;5.812;2023-04-28T03:50:14;62.88;45.60;73.66;;
58251;Laerm;51449;51.676;5.812;2023-04-28T03:52:36;64.07;46.27;75.62;;
58251;Laerm;51449;51.676;5.812;2023-04-28T03:54:57;62.99;45.34;79.73;;
58251;Laerm;51449;51.676;5.812;2023-04-28T03:57:19;67.28;45.12;81.82;;
58251;Laerm;51449;51.676;5.812;2023-04-28T03:59:41;68.48;43.72;82.09;;
58251;Laerm;51449;51.676;5.812;2023-04-28T04:02:04;69.85;44.56;83.82;;
58251;Laerm;51449;51.676;5.812;2023-04-28T04:04:26;70.29;40.74;85.87;;
58251;Laerm;51449;51.676;5.812;2023-04-28T04:06:50;71.73;47.29;86.83;;
58251;Laerm;51449;51.676;5.812;2023-04-28T04:09:12;69.83;45.48;86.51;;
58251;Laerm;51449;51.676;5.812;2023-04-28T04:11:34;65.46;41.82;80.32;;
58251;Laerm;51449;51.676;5.812;2023-04-28T04:13:56;66.84;43.42;80.26;;
58251;Laerm;51449;51.676;5.812;2023-04-28T04:16:19;70.38;43.27;85.80;;
58251;Laerm;51449;51.676;5.812;2023-04-28T04:18:42;68.08;38.94;85.64;;
58251;Laerm;51449;51.676;5.812;2023-04-28T04:21:13;69.34;39.77;86.91;;
58251;Laerm;51449;51.676;5.812;2023-04-28T04:23:34;63.54;40.09;78.01;;
58251;Laerm;51449;51.676;5.812;2023-04-28T04:25:56;61.72;41.32;72.62;;
58251;Laerm;51449;51.676;5.812;2023-04-28T04:28:18;63.51;41.75;77.68;;
58251;Laerm;51449;51.676;5.812;2023-04-28T04:30:40;60.44;39.94;69.06;;
58251;Laerm;51449;51.676;5.812;2023-04-28T04:33:01;62.63;40.28;80.42;;
58251;Laerm;51449;51.676;5.812;2023-04-28T04:35:23;64.51;42.86;77.49;;
58251;Laerm;51449;51.676;5.812;2023-04-28T04:37:46;63.74;38.00;76.64;;
58251;Laerm;51449;51.676;5.812;2023-04-28T04:40:10;65.21;41.24;75.85;;
58251;Laerm;51449;51.676;5.812;2023-04-28T04:42:39;63.48;38.60;76.16;;
58251;Laerm;51449;51.676;5.812;2023-04-28T04:45:04;65.15;43.56;76.53;;
58251;Laerm;51449;51.676;5.812;2023-04-28T04:47:27;63.91;39.17;83.95;;
58251;Laerm;51449;51.676;5.812;2023-04-28T04:49:49;62.08;41.73;76.39;;
58251;Laerm;51449;51.676;5.812;2023-04-28T04:52:11;70.59;40.48;87.27;;
58251;Laerm;51449;51.676;5.812;2023-04-28T04:54:33;65.63;42.00;87.32;;
58251;Laerm;51449;51.676;5.812;2023-04-28T04:56:57;64.25;41.62;79.50;;
58251;Laerm;51449;51.676;5.812;2023-04-28T04:59:39;64.19;43.09;77.26;;
58251;Laerm;51449;51.676;5.812;2023-04-28T05:02:05;67.69;41.13;86.99;;
58251;Laerm;51449;51.676;5.812;2023-04-28T05:04:27;64.58;39.85;77.56;;
58251;Laerm;51449;51.676;5.812;2023-04-28T05:06:49;64.11;40.49;78.86;;
58251;Laerm;51449;51.676;5.812;2023-04-28T05:09:12;64.86;41.81;78.76;;
58251;Laerm;51449;51.676;5.812;2023-04-28T05:11:34;63.77;41.52;75.72;;
58251;Laerm;51449;51.676;5.812;2023-04-28T05:13:57;65.14;40.44;79.65;;
58251;Laerm;51449;51.676;5.812;2023-04-28T05:16:18;64.34;40.98;76.69;;
58251;Laerm;51449;51.676;5.812;2023-04-28T05:19:04;65.42;40.89;81.51;;
58251;Laerm;51449;51.676;5.812;2023-04-28T05:21:26;63.35;41.64;78.41;;
58251;Laerm;51449;51.676;5.812;2023-04-28T05:23:49;65.99;43.93;77.19;;
58251;Laerm;51449;51.676;5.812;2023-04-28T05:26:11;65.45;40.52;77.17;;
58251;Laerm;51449;51.676;5.812;2023-04-28T05:28:33;66.03;39.70;79.13;;
58251;Laerm;51449;51.676;5.812;2023-04-28T05:30:55;66.34;43.22;80.16;;
58251;Laerm;51449;51.676;5.812;2023-04-28T05:33:17;65.53;48.14;77.04;;
58251;Laerm;51449;51.676;5.812;2023-04-28T05:35:41;68.03;42.11;87.48;;
58251;Laerm;51449;51.676;5.812;2023-04-28T05:38:03;69.50;43.35;83.45;;
58251;Laerm;51449;51.676;5.812;2023-04-28T05:40:25;69.01;41.27;81.61;;
58251;Laerm;51449;51.676;5.812;2023-04-28T05:42:48;68.21;45.81;81.65;;
58251;Laerm;51449;51.676;5.812;2023-04-28T05:45:10;66.72;47.06;80.43;;
58251;Laerm;51449;51.676;5.812;2023-04-28T05:47:33;64.30;43.83;73.76;;
58251;Laerm;51449;51.676;5.812;2023-04-28T05:49:54;65.36;42.15;76.35;;
58251;Laerm;51449;51.676;5.812;2023-04-28T05:52:17;63.56;40.62;73.85;;
58251;Laerm;51449;51.676;5.812;2023-04-28T05:54:39;63.02;41.21;77.04;;
58251;Laerm;51449;51.676;5.812;2023-04-28T05:57:01;62.03;40.30;73.21;;
58251;Laerm;51449;51.676;5.812;2023-04-28T05:59:23;65.82;47.75;74.86;;
58251;Laerm;51449;51.676;5.812;2023-04-28T06:01:45;60.95;42.53;71.77;;
58251;Laerm;51449;51.676;5.812;2023-04-28T06:04:07;60.30;38.77;75.81;;
58251;Laerm;51449;51.676;5.812;2023-04-28T06:06:30;66.47;43.66;79.83;;
58251;Laerm;51449;51.676;5.812;2023-04-28T06:08:53;71.50;43.51;86.00;;
58251;Laerm;51449;51.676;5.812;2023-04-28T06:11:15;68.01;42.98;81.73;;
58251;Laerm;51449;51.676;5.812;2023-04-28T06:13:37;65.40;42.04;82.58;;
58251;Laerm;51449;51.676;5.812;2023-04-28T06:15:59;64.71;44.31;77.41;;
58251;Laerm;51449;51.676;5.812;2023-04-28T06:18:22;61.58;41.36;72.61;;
58251;Laerm;51449;51.676;5.812;2023-04-28T06:20:44;63.55;38.47;80.53;;
58251;Laerm;51449;51.676;5.812;2023-04-28T06:23:07;66.08;38.12;84.57;;
58251;Laerm;51449;51.676;5.812;2023-04-28T06:25:36;64.00;41.85;79.67;;
58251;Laerm;51449;51.676;5.812;2023-04-28T06:27:58;63.64;40.25;75.23;;
58251;Laerm;51449;51.676;5.812;2023-04-28T06:30:21;64.23;39.10;83.79;;
58251;Laerm;51449;51.676;5.812;2023-04-28T06:32:43;65.45;39.94;86.98;;
58251;Laerm;51449;51.676;5.812;2023-04-28T06:35:06;60.59;36.89;71.54;;
58251;Laerm;51449;51.676;5.812;2023-04-28T06:37:28;65.59;37.90;78.55;;
58251;Laerm;51449;51.676;5.812;2023-04-28T06:39:52;63.46;39.77;78.85;;
58251;Laerm;51449;51.676;5.812;2023-04-28T06:42:16;67.12;43.92;81.36;;
58251;Laerm;51449;51.676;5.812;2023-04-28T06:44:48;63.63;37.04;76.33;;
58251;Laerm;51449;51.676;5.812;2023-04-28T06:47:10;63.37;42.47;78.39;;
58251;Laerm;51449;51.676;5.812;2023-04-28T06:49:32;66.11;37.35;87.25;;
58251;Laerm;51449;51.676;5.812;2023-04-28T06:51:54;67.93;40.93;89.06;;
58251;Laerm;51449;51.676;5.812;2023-04-28T06:54:16;67.08;42.65;79.09;;
58251;Laerm;51449;51.676;5.812;2023-04-28T06:56:39;61.34;38.33;76.66;;
58251;Laerm;51449;51.676;5.812;2023-04-28T06:59:01;69.26;39.51;88.84;;
58251;Laerm;51449;51.676;5.812;2023-04-28T07:01:24;65.69;41.25;84.42;;
58251;Laerm;51449;51.676;5.812;2023-04-28T07:03:46;61.85;40.45;73.72;;
58251;Laerm;51449;51.676;5.812;2023-04-28T07:06:08;66.23;40.71;80.12;;
58251;Laerm;51449;51.676;5.812;2023-04-28T07:08:32;66.16;41.73;80.45;;
58251;Laerm;51449;51.676;5.812;2023-04-28T07:10:54;65.57;42.90;72.88;;
58251;Laerm;51449;51.676;5.812;2023-04-28T07:13:16;61.85;46.18;72.08;;
58251;Laerm;51449;51.676;5.812;2023-04-28T07:15:38;65.94;44.16;79.88;;
58251;Laerm;51449;51.676;5.812;2023-04-28T07:18:00;66.16;44.49;79.33;;
58251;Laerm;51449;51.676;5.812;2023-04-28T07:20:22;68.21;43.94;82.53;;
58251;Laerm;51449;51.676;5.812;2023-04-28T07:22:44;65.88;45.20;83.27;;
58251;Laerm;51449;51.676;5.812;2023-04-28T07:25:07;68.16;48.28;96.17;;
58251;Laerm;51449;51.676;5.812;2023-04-28T07:27:29;69.13;46.71;79.68;;
58251;Laerm;51449;51.676;5.812;2023-04-28T07:29:50;66.03;45.19;81.80;;
58251;Laerm;51449;51.676;5.812;2023-04-28T07:32:12;67.88;43.33;78.94;;
58251;Laerm;51449;51.676;5.812;2023-04-28T07:34:34;67.30;44.97;82.15;;
58251;Laerm;51449;51.676;5.812;2023-04-28T07:36:57;66.31;45.93;79.61;;
58251;Laerm;51449;51.676;5.812;2023-04-28T07:39:19;67.96;44.78;89.80;;
58251;Laerm;51449;51.676;5.812;2023-04-28T07:41:41;68.36;43.84;83.08;;
58251;Laerm;51449;51.676;5.812;2023-04-28T07:44:05;67.25;42.73;82.29;;
58251;Laerm;51449;51.676;5.812;2023-04-28T07:46:29;67.91;43.66;86.17;;
58251;Laerm;51449;51.676;5.812;2023-04-28T07:48:52;64.91;45.66;74.34;;
58251;Laerm;51449;51.676;5.812;2023-04-28T07:51:14;66.34;50.02;79.87;;
58251;Laerm;51449;51.676;5.812;2023-04-28T07:53:37;65.10;46.67;76.83;;
58251;Laerm;51449;51.676;5.812;2023-04-28T07:55:59;67.78;46.59;80.14;;
58251;Laerm;51449;51.676;5.812;2023-04-28T07:58:21;63.93;46.99;75.26;;
58251;Laerm;51449;51.676;5.812;2023-04-28T08:00:43;67.91;44.54;81.94;;
58251;Laerm;51449;51.676;5.812;2023-04-28T08:03:05;69.32;42.68;81.25;;
58251;Laerm;51449;51.676;5.812;2023-04-28T08:05:28;68.00;44.84;84.27;;
58251;Laerm;51449;51.676;5.812;2023-04-28T08:07:50;67.39;43.61;79.07;;
58251;Laerm;51449;51.676;5.812;2023-04-28T08:10:12;67.76;42.02;80.41;;
58251;Laerm;51449;51.676;5.812;2023-04-28T08:12:34;65.68;45.23;78.08;;
58251;Laerm;51449;51.676;5.812;2023-04-28T08:14:56;67.01;43.87;79.50;;
58251;Laerm;51449;51.676;5.812;2023-04-28T08:17:18;67.84;45.56;79.44;;
58251;Laerm;51449;51.676;5.812;2023-04-28T08:19:40;71.67;50.62;82.72;;
58251;Laerm;51449;51.676;5.812;2023-04-28T08:22:02;70.20;47.53;80.74;;
58251;Laerm;51449;51.676;5.812;2023-04-28T08:24:27;67.28;49.88;78.53;;
58251;Laerm;51449;51.676;5.812;2023-04-28T08:26:50;69.21;56.45;78.68;;
58251;Laerm;51449;51.676;5.812;2023-04-28T08:29:12;66.87;44.37;76.24;;
58251;Laerm;51449;51.676;5.812;2023-04-28T08:31:34;62.94;41.04;72.52;;
58251;Laerm;51449;51.676;5.812;2023-04-28T08:33:56;65.14;45.15;77.94;;
58251;Laerm;51449;51.676;5.812;2023-04-28T08:36:18;65.22;46.67;76.80;;
58251;Laerm;51449;51.676;5.812;2023-04-28T08:38:40;62.29;43.86;72.89;;
58251;Laerm;51449;51.676;5.812;2023-04-28T08:41:03;65.46;45.33;80.71;;
58251;Laerm;51449;51.676;5.812;2023-04-28T08:43:26;67.39;44.42;80.35;;
58251;Laerm;51449;51.676;5.812;2023-04-28T08:45:49;66.44;45.58;81.59;;
58251;Laerm;51449;51.676;5.812;2023-04-28T08:48:21;67.64;46.73;81.23;;
58251;Laerm;51449;51.676;5.812;2023-04-28T08:50:52;68.09;42.32;84.85;;
58251;Laerm;51449;51.676;5.812;2023-04-28T08:53:24;68.59;41.84;83.51;;
58251;Laerm;51449;51.676;5.812;2023-04-28T08:55:49;70.76;41.98;86.57;;
58251;Laerm;51449;51.676;5.812;2023-04-28T08:58:11;60.94;44.23;76.58;;
58251;Laerm;51449;51.676;5.812;2023-04-28T09:00:36;66.86;47.42;84.06;;
58251;Laerm;51449;51.676;5.812;2023-04-28T09:02:58;65.78;49.02;77.33;;
58251;Laerm;51449;51.676;5.812;2023-04-28T09:05:21;63.64;40.93;74.80;;
58251;Laerm;51449;51.676;5.812;2023-04-28T09:07:46;66.54;42.50;81.28;;
58251;Laerm;51449;51.676;5.812;2023-04-28T09:10:17;64.97;45.52;77.44;;
58251;Laerm;51449;51.676;5.812;2023-04-28T09:12:39;62.93;42.64;79.55;;
58251;Laerm;51449;51.676;5.812;2023-04-28T09:15:02;65.37;43.18;83.80;;
58251;Laerm;51449;51.676;5.812;2023-04-28T09:17:29;64.27;45.47;82.73;;
58251;Laerm;51449;51.676;5.812;2023-04-28T09:19:52;61.34;43.65;73.08;;
58251;Laerm;51449;51.676;5.812;2023-04-28T09:22:14;63.69;43.09;73.08;;
58251;Laerm;51449;51.676;5.812;2023-04-28T09:24:47;66.02;42.93;77.69;;
58251;Laerm;51449;51.676;5.812;2023-04-28T09:27:10;65.80;48.20;77.90;;
58251;Laerm;51449;51.676;5.812;2023-04-28T09:29:33;68.77;45.05;87.48;;
58251;Laerm;51449;51.676;5.812;2023-04-28T09:32:13;66.11;44.03;77.70;;
58251;Laerm;51449;51.676;5.812;2023-04-28T09:34:50;63.41;44.32;78.28;;
58251;Laerm;51449;51.676;5.812;2023-04-28T09:37:22;65.88;45.17;83.86;;
58251;Laerm;51449;51.676;5.812;2023-04-28T09:39:47;70.10;50.59;85.39;;
58251;Laerm;51449;51.676;5.812;2023-04-28T09:42:35;65.98;49.93;81.57;;
58251;Laerm;51449;51.676;5.812;2023-04-28T09:44:57;64.21;40.24;83.35;;
58251;Laerm;51449;51.676;5.812;2023-04-28T09:47:19;62.06;39.81;71.95;;
58251;Laerm;51449;51.676;5.812;2023-04-28T09:49:58;65.29;41.61;75.75;;
58251;Laerm;51449;51.676;5.812;2023-04-28T09:52:22;62.67;41.74;75.12;;
58251;Laerm;51449;51.676;5.812;2023-04-28T09:54:45;66.98;46.07;83.81;;
58251;Laerm;51449;51.676;5.812;2023-04-28T09:57:09;61.04;40.33;73.35;;
58251;Laerm;51449;51.676;5.812;2023-04-28T09:59:33;64.67;43.90;76.71;;
58251;Laerm;51449;51.676;5.812;2023-04-28T10:01:55;62.20;40.73;85.58;;
58251;Laerm;51449;51.676;5.812;2023-04-28T10:04:18;67.78;47.32;82.05;;
58251;Laerm;51449;51.676;5.812;2023-04-28T10:06:40;66.46;47.33;83.20;;
58251;Laerm;51449;51.676;5.812;2023-04-28T10:09:04;65.70;40.74;80.69;;
58251;Laerm;51449;51.676;5.812;2023-04-28T10:11:26;65.95;44.74;76.30;;
58251;Laerm;51449;51.676;5.812;2023-04-28T10:13:49;63.76;44.38;73.87;;
58251;Laerm;51449;51.676;5.812;2023-04-28T10:16:13;65.69;47.62;81.06;;
58251;Laerm;51449;51.676;5.812;2023-04-28T10:18:36;62.53;43.31;72.45;;
58251;Laerm;51449;51.676;5.812;2023-04-28T10:21:02;66.41;44.22;77.80;;
58251;Laerm;51449;51.676;5.812;2023-04-28T10:29:14;65.63;40.14;76.78;;
58251;Laerm;51449;51.676;5.812;2023-04-28T10:31:37;67.87;43.56;82.90;;
58251;Laerm;51449;51.676;5.812;2023-04-28T10:34:22;69.58;42.55;86.25;;
58251;Laerm;51449;51.676;5.812;2023-04-28T10:36:51;70.87;48.40;85.65;;
58251;Laerm;51449;51.676;5.812;2023-04-28T10:39:15;65.50;43.84;74.55;;
58251;Laerm;51449;51.676;5.812;2023-04-28T10:41:37;62.72;43.36;70.81;;
58251;Laerm;51449;51.676;5.812;2023-04-28T10:43:59;65.78;51.93;83.23;;
58251;Laerm;51449;51.676;5.812;2023-04-28T10:46:21;67.62;45.00;85.26;;
58251;Laerm;51449;51.676;5.812;2023-04-28T10:56:15;66.41;50.67;77.24;;
58251;Laerm;51449;51.676;5.812;2023-04-28T10:58:40;65.50;46.69;74.93;;
58251;Laerm;51449;51.676;5.812;2023-04-28T11:06:30;66.22;46.74;79.99;;
58251;Laerm;51449;51.676;5.812;2023-04-28T11:08:58;64.81;46.81;75.92;;
58251;Laerm;51449;51.676;5.812;2023-04-28T11:11:26;64.16;45.32;73.87;;
58251;Laerm;51449;51.676;5.812;2023-04-28T11:13:49;62.24;45.69;74.68;;
58251;Laerm;51449;51.676;5.812;2023-04-28T11:16:14;60.46;47.25;67.34;;
58251;Laerm;51449;51.676;5.812;2023-04-28T11:18:59;65.94;46.09;82.81;;
58251;Laerm;51449;51.676;5.812;2023-04-28T11:21:25;67.55;48.64;88.47;;
58251;Laerm;51449;51.676;5.812;2023-04-28T11:23:49;67.91;48.57;79.20;;
58251;Laerm;51449;51.676;5.812;2023-04-28T11:26:11;67.68;49.81;78.10;;
58251;Laerm;51449;51.676;5.812;2023-04-28T11:28:34;63.81;42.64;80.99;;
58251;Laerm;51449;51.676;5.812;2023-04-28T11:31:14;62.88;46.40;78.87;;
58251;Laerm;51449;51.676;5.812;2023-04-28T11:33:47;63.61;46.10;79.08;;
58251;Laerm;51449;51.676;5.812;2023-04-28T11:36:25;65.21;46.20;78.58;;
58251;Laerm;51449;51.676;5.812;2023-04-28T11:38:46;69.51;54.14;86.17;;
58251;Laerm;51449;51.676;5.812;2023-04-28T11:41:09;68.57;46.78;83.86;;
58251;Laerm;51449;51.676;5.812;2023-04-28T11:43:31;62.95;45.35;71.38;;
58251;Laerm;51449;51.676;5.812;2023-04-28T11:46:07;64.01;44.27;79.53;;
58251;Laerm;51449;51.676;5.812;2023-04-28T11:48:29;64.31;50.89;75.37;;
58251;Laerm;51449;51.676;5.812;2023-04-28T11:50:50;64.13;45.13;77.97;;
58251;Laerm;51449;51.676;5.812;2023-04-28T11:53:12;68.12;42.25;79.30;;
58251;Laerm;51449;51.676;5.812;2023-04-28T11:55:35;64.79;43.23;79.21;;
58251;Laerm;51449;51.676;5.812;2023-04-28T11:58:19;62.12;43.18;72.60;;
58251;Laerm;51449;51.676;5.812;2023-04-28T12:01:08;63.59;46.22;73.92;;
58251;Laerm;51449;51.676;5.812;2023-04-28T12:03:31;65.06;46.26;75.90;;
58251;Laerm;51449;51.676;5.812;2023-04-28T12:05:54;63.72;47.60;74.82;;
58251;Laerm;51449;51.676;5.812;2023-04-28T12:08:27;62.51;46.64;78.33;;
58251;Laerm;51449;51.676;5.812;2023-04-28T12:11:10;64.39;45.32;79.90;;
58251;Laerm;51449;51.676;5.812;2023-04-28T12:13:33;62.54;42.77;74.01;;
58251;Laerm;51449;51.676;5.812;2023-04-28T12:15:57;65.61;52.21;76.70;;
58251;Laerm;51449;51.676;5.812;2023-04-28T12:18:22;65.42;42.05;77.11;;
58251;Laerm;51449;51.676;5.812;2023-04-28T12:20:44;67.48;48.14;83.86;;
58251;Laerm;51449;51.676;5.812;2023-04-28T12:23:06;64.78;46.66;79.97;;
58251;Laerm;51449;51.676;5.812;2023-04-28T12:25:29;69.68;51.37;77.88;;
58251;Laerm;51449;51.676;5.812;2023-04-28T12:28:04;71.38;45.79;83.30;;
58251;Laerm;51449;51.676;5.812;2023-04-28T12:30:28;71.40;45.51;85.18;;
58251;Laerm;51449;51.676;5.812;2023-04-28T12:32:50;64.95;50.69;76.39;;
58251;Laerm;51449;51.676;5.812;2023-04-28T12:35:12;64.68;46.26;84.80;;
58251;Laerm;51449;51.676;5.812;2023-04-28T12:37:35;65.66;48.39;84.58;;
58251;Laerm;51449;51.676;5.812;2023-04-28T12:39:59;66.06;46.91;85.91;;
58251;Laerm;51449;51.676;5.812;2023-04-28T12:42:21;64.91;48.81;75.25;;
58251;Laerm;51449;51.676;5.812;2023-04-28T12:44:44;64.85;50.74;87.77;;
58251;Laerm;51449;51.676;5.812;2023-04-28T12:47:08;66.28;49.67;82.58;;
58251;Laerm;51449;51.676;5.812;2023-04-28T12:49:33;64.33;45.98;78.59;;
58251;Laerm;51449;51.676;5.812;2023-04-28T12:51:55;66.55;47.32;81.97;;
58251;Laerm;51449;51.676;5.812;2023-04-28T12:54:17;66.53;44.69;89.55;;
58251;Laerm;51449;51.676;5.812;2023-04-28T12:56:39;66.49;52.47;76.91;;
58251;Laerm;51449;51.676;5.812;2023-04-28T12:59:00;67.65;48.14;81.39;;
58251;Laerm;51449;51.676;5.812;2023-04-28T13:01:26;65.94;43.25;78.99;;
58251;Laerm;51449;51.676;5.812;2023-04-28T13:03:48;66.85;51.60;78.68;;
58251;Laerm;51449;51.676;5.812;2023-04-28T13:06:11;66.38;48.68;79.03;;
58251;Laerm;51449;51.676;5.812;2023-04-28T13:08:33;65.55;43.21;80.85;;
58251;Laerm;51449;51.676;5.812;2023-04-28T13:10:55;63.97;48.18;75.47;;
58251;Laerm;51449;51.676;5.812;2023-04-28T13:13:16;67.04;46.22;83.30;;
58251;Laerm;51449;51.676;5.812;2023-04-28T13:15:38;66.30;41.09;81.72;;
58251;Laerm;51449;51.676;5.812;2023-04-28T13:18:00;69.23;53.48;80.55;;
58251;Laerm;51449;51.676;5.812;2023-04-28T13:20:22;65.05;52.62;74.44;;
58251;Laerm;51449;51.676;5.812;2023-04-28T13:22:44;66.11;49.15;77.15;;
58251;Laerm;51449;51.676;5.812;2023-04-28T13:25:06;66.55;49.16;75.01;;
58251;Laerm;51449;51.676;5.812;2023-04-28T13:27:29;67.22;50.78;77.76;;
58251;Laerm;51449;51.676;5.812;2023-04-28T13:29:51;65.30;49.83;78.77;;
58251;Laerm;51449;51.676;5.812;2023-04-28T13:32:12;67.34;47.20;81.28;;
58251;Laerm;51449;51.676;5.812;2023-04-28T13:34:34;65.85;45.52;77.33;;
58251;Laerm;51449;51.676;5.812;2023-04-28T13:36:58;68.73;47.67;85.83;;
58251;Laerm;51449;51.676;5.812;2023-04-28T13:39:20;63.87;44.08;80.52;;
58251;Laerm;51449;51.676;5.812;2023-04-28T13:41:42;68.72;47.04;80.59;;
58251;Laerm;51449;51.676;5.812;2023-04-28T13:44:04;62.06;41.63;71.73;;